Nearby METAR Reports


Data Updates Approximately Every Four (4) Hours

METAR is the international standard code format for hourly surface weather observations which is analogous to the SA coding currently used in the US. The acronym roughly translates from French as Aviation Routine Weather Report. SPECI is merely the code name given to METAR formatted products which are issued on a special non-routine basis as dictated by changing meteorological conditions. The SPECI acronym roughly translates as Aviation Selected Special Weather Report.
Source: NOAA-National Centers For Environmental Information.

KSLH - Cheboygan, Michigan, USA
Distance from LHW: W 9mi, 14km
Updated: 02/27/2024 9:35am
Clear
Clear
 Wind from ESE
Wind: ESE 7 mph , 11 km/h
Temperature: 45°F , 7°C
Wind Chill: 41°F , 5°C
Dew Point: 39°F , 4°C
Humidity: 81%
Barometer: 29.35 inHg , 993.9 hPa
Clouds: Clear
Visibility: 10 miles , 16 km
2024/02/27 14:35 KSLH 271435Z AUTO 12006KT 10SM CLR 07/04 A2935 RMK AO2
KMCD - Mackinac Island, Michigan, USA
Distance from LHW: NW 19mi, 31km
Updated: 02/27/2024 9:35am
Clear
Clear
 Wind from ESE
Wind: ESE 10 mph , 17 km/h, Gust: 17 mph , 28 km/h
Temperature: 41°F , 5°C
Wind Chill: 35°F , 2°C
Dew Point: 39°F , 4°C
Humidity: 93%
Barometer: 29.36 inHg , 994.2 hPa
Clouds: Clear
Visibility: 10 miles , 16 km
2024/02/27 14:35 KMCD 271435Z AUTO 11009G15KT 10SM CLR 05/04 A2936 RMK AO2 T00450044
 
KDRM - Drummond Is, Michigan, USA
Distance from LHW: NE 36mi, 59km
Updated: 02/27/2024 9:35am
Clear
Clear
 Wind from SE
Wind: SE 7 mph , 11 km/h
Temperature: 43°F , 6°C
Wind Chill: 39°F , 4°C
Dew Point: 37°F , 3°C
Humidity: 81%
Barometer: 29.40 inHg , 995.6 hPa
Clouds: Clear
Visibility: 10 miles , 16 km
2024/02/27 14:35 KDRM 271435Z AUTO 13006KT 10SM CLR 06/03 A2940 RMK AO2 T00600030
KPZQ - Rogers City, Michigan, USA
Distance from LHW: SE 31mi, 50km
Updated: 02/27/2024 9:35am
Clear
Clear
 Wind from SE
Wind: SE 3 mph , 6 km/h
Temperature: 45°F , 7°C
Dew Point: 37°F , 3°C
Humidity: 76%
Barometer: 29.41 inHg , 995.9 hPa
Clouds: Clear
Visibility: 10 miles , 16 km
2024/02/27 14:35 KPZQ 271435Z AUTO 13003KT 10SM CLR 07/03 A2941 RMK AO2 T00740030
 
CYAM - Sault Ste Marie, Ontario, Canada
Distance from LHW: N 56mi, 90km
Updated: 02/27/2024 9:00am
Mist, Partly cloudy
Mist, Partly cloudy
 Wind from ENE
Wind: ENE 12 mph , 19 km/h
Temperature: 36°F , 2°C
Wind Chill: 28°F , -2°C
Dew Point: 32°F , 0°C
Humidity: 87%
Barometer: 29.38 inHg , 994.9 hPa
Summary: Mist
Clouds: Partly cloudy
Visibility: 6 miles , 10 km
Cloud details: Few Clouds 1000 ft
Few Clouds 16000 ft
Partly cloudy 22000 ft
2024/02/27 14:00 CYAM 271400Z 07010KT 6SM BR FEW010 FEW160 SCT220 02/M00 A2938 RMK SC1AC1CI1 SLP958
KANJ - Sault Ste Marie, Michigan, USA
Distance from LHW: N 56mi, 89km
Updated: 02/27/2024 8:55am
Clear
Clear
 Wind from E
Wind: E 12 mph , 19 km/h, Gust: 20 mph , 31 km/h
Temperature: 37°F , 3°C
Wind Chill: 29°F , -2°C
Dew Point: 34°F , 1°C
Humidity: 87%
Barometer: 29.38 inHg , 994.9 hPa
Clouds: Clear
Visibility: 7 miles , 11 km
2024/02/27 13:55 KANJ 271355Z AUTO 10010G17KT 7SM CLR 03/01 A2938 RMK AO2 SLP953 T00280011
 
KGLR - Gaylord, Michigan, USA
Distance from LHW: SSW 48mi, 77km
Updated: 02/27/2024 9:31am
Mostly cloudy
Mostly cloudy
 Wind from S
Wind: S 9 mph , 15 km/h
Temperature: 50°F , 10°C
Wind Chill: 46°F , 8°C
Dew Point: 41°F , 5°C
Humidity: 71%
Barometer: 29.37 inHg , 994.6 hPa
Clouds: Mostly cloudy
Visibility: 10 miles , 16 km
Cloud details: Mostly cloudy 800 ft
2024/02/27 14:31 KGLR 271431Z AUTO 19008KT 10SM BKN008 10/05 A2937 RMK AO2 T01000050
KPLN - Pellston, Michigan, USA
Distance from LHW: WSW 24mi, 38km
Updated: 02/27/2024 8:54am
Mist, Clear
Mist, Clear
 Wind from calm
Wind: Calm
Temperature: 36°F , 2°C
Dew Point: 34°F , 1°C
Humidity: 93%
Barometer: 29.37 inHg , 994.6 hPa
Summary: Mist
Clouds: Clear
Visibility: 6 miles , 10 km
2024/02/27 13:54 KPLN 271354Z AUTO 00000KT 6SM BR CLR 02/01 A2937 RMK AO2 SLP952 T00220006